createdAt,value
2023-05-14T00:00:51.110Z,11.65
2023-05-14T00:03:18.104Z,11.68
2023-05-14T00:05:44.908Z,11.53
2023-05-14T00:08:11.758Z,11.13
2023-05-14T00:10:38.547Z,12.02
2023-05-14T00:13:05.728Z,11.68
2023-05-14T00:15:34.187Z,11.23
2023-05-14T00:18:01.427Z,10.97
2023-05-14T00:20:28.432Z,11.38
2023-05-14T00:22:55.468Z,10.90
2023-05-14T00:25:22.231Z,11.43
2023-05-14T00:27:49.050Z,11.35
2023-05-14T00:30:15.903Z,10.83
2023-05-14T00:32:42.809Z,11.80
2023-05-14T00:35:09.830Z,11.85
2023-05-14T00:37:37.377Z,11.60
2023-05-14T00:40:06.885Z,11.90
2023-05-14T00:42:34.188Z,11.37
2023-05-14T00:45:00.937Z,11.32
2023-05-14T00:47:28.092Z,11.45
2023-05-14T00:49:55.130Z,11.10
2023-05-14T00:52:22.121Z,11.18
2023-05-14T00:54:52.864Z,10.70
2023-05-14T00:57:21.583Z,11.43
2023-05-14T00:59:48.488Z,10.90
2023-05-14T01:02:16.518Z,10.93
2023-05-14T01:04:43.494Z,10.70
2023-05-14T01:07:29.081Z,11.03
2023-05-14T01:10:17.411Z,10.63
2023-05-14T01:13:18.446Z,10.65
2023-05-14T01:15:47.706Z,10.43
2023-05-14T01:18:18.570Z,11.32
2023-05-14T01:20:46.252Z,11.43
2023-05-14T01:23:13.247Z,11.07
2023-05-14T01:25:40.195Z,11.73
2023-05-14T01:28:19.728Z,11.35
2023-05-14T01:30:54.279Z,11.75
2023-05-14T01:33:24.962Z,11.33
2023-05-14T01:35:54.200Z,11.57
2023-05-14T01:38:22.246Z,11.30
2023-05-14T01:40:49.863Z,11.60
2023-05-14T01:43:17.314Z,11.68
2023-05-14T01:45:44.547Z,11.30
2023-05-14T01:48:11.892Z,11.25
2023-05-14T01:50:38.776Z,11.70
2023-05-14T01:53:05.806Z,11.57
2023-05-14T01:55:32.746Z,11.48
2023-05-14T01:57:59.818Z,11.73
2023-05-14T02:00:27.061Z,11.95
2023-05-14T02:02:54.010Z,11.68
2023-05-14T02:05:21.561Z,11.80
2023-05-14T02:07:48.432Z,12.10
2023-05-14T02:10:16.195Z,11.53
2023-05-14T02:12:43.154Z,11.40
2023-05-14T02:15:11.185Z,11.48
2023-05-14T02:17:38.320Z,11.15
2023-05-14T02:20:05.776Z,11.98
2023-05-14T02:22:32.638Z,11.73
2023-05-14T02:24:59.781Z,11.88
2023-05-14T02:27:26.807Z,11.07
2023-05-14T02:29:53.759Z,11.52
2023-05-14T02:32:20.755Z,11.50
2023-05-14T02:34:47.540Z,11.63
2023-05-14T02:37:14.372Z,11.80
2023-05-14T02:39:41.284Z,11.45
2023-05-14T02:42:08.111Z,11.38
2023-05-14T02:44:35.043Z,11.07
2023-05-14T02:47:01.963Z,11.03
2023-05-14T02:49:28.802Z,11.43
2023-05-14T02:51:56.826Z,11.82
2023-05-14T02:54:23.766Z,11.35
2023-05-14T02:56:50.748Z,11.32
2023-05-14T02:59:17.691Z,11.17
2023-05-14T03:01:45.012Z,11.57
2023-05-14T03:04:12.234Z,11.40
2023-05-14T03:06:39.020Z,11.27
2023-05-14T03:09:05.948Z,11.38
2023-05-14T03:11:33.095Z,11.57
2023-05-14T03:13:59.845Z,11.95
2023-05-14T03:16:26.958Z,11.20
2023-05-14T03:18:53.795Z,12.18
2023-05-14T03:21:20.651Z,11.07
2023-05-14T03:23:48.950Z,11.37
2023-05-14T03:26:18.730Z,11.50
2023-05-14T03:28:45.579Z,11.27
2023-05-14T03:31:13.037Z,11.43
2023-05-14T03:33:40.053Z,11.70
2023-05-14T03:36:07.217Z,11.63
2023-05-14T03:38:34.001Z,12.30
2023-05-14T03:41:00.764Z,12.15
2023-05-14T03:43:27.731Z,12.00
2023-05-14T03:45:54.903Z,11.80
2023-05-14T03:48:22.954Z,11.93
2023-05-14T03:50:50.005Z,12.57
2023-05-14T03:53:16.996Z,12.23
2023-05-14T03:55:45.790Z,12.35
2023-05-14T03:58:14.338Z,11.68
2023-05-14T04:00:42.379Z,11.63
2023-05-14T04:03:11.320Z,12.25
2023-05-14T04:05:38.306Z,11.32
2023-05-14T04:08:05.880Z,11.57
2023-05-14T04:10:32.906Z,12.00
2023-05-14T04:13:00.637Z,10.90
2023-05-14T04:15:31.931Z,11.90
2023-05-14T04:17:58.887Z,11.80
2023-05-14T04:20:25.860Z,11.98
2023-05-14T04:22:53.726Z,11.63
2023-05-14T04:25:20.800Z,11.43
2023-05-14T04:27:47.594Z,11.63
2023-05-14T04:30:14.594Z,11.40
2023-05-14T04:32:41.453Z,11.55
2023-05-14T04:35:10.275Z,11.25
2023-05-14T04:37:37.144Z,11.43
2023-05-14T04:40:05.784Z,11.70
2023-05-14T04:42:32.570Z,11.23
2023-05-14T04:44:59.508Z,10.90
2023-05-14T04:47:26.661Z,10.70
2023-05-14T04:49:53.562Z,11.00
2023-05-14T04:52:20.368Z,10.43
2023-05-14T04:54:47.235Z,11.07
2023-05-14T04:57:14.163Z,11.15
2023-05-14T04:59:40.970Z,10.57
2023-05-14T05:02:07.859Z,10.77
2023-05-14T05:04:34.914Z,10.75
2023-05-14T05:07:01.729Z,11.13
2023-05-14T05:09:28.527Z,11.00
2023-05-14T05:11:55.400Z,10.98
2023-05-14T05:14:22.227Z,10.90
2023-05-14T05:16:49.061Z,11.30
2023-05-14T05:19:15.941Z,10.48
2023-05-14T05:21:43.022Z,11.82
2023-05-14T05:24:09.853Z,10.18
2023-05-14T05:26:37.010Z,10.70
2023-05-14T05:29:04.568Z,11.18
2023-05-14T05:31:32.060Z,11.10
2023-05-14T05:34:00.730Z,10.73
2023-05-14T05:36:27.557Z,10.65
2023-05-14T05:38:54.975Z,10.97
2023-05-14T05:41:22.487Z,10.85
2023-05-14T05:43:49.349Z,9.98
2023-05-14T05:46:16.365Z,10.25
2023-05-14T05:48:43.250Z,10.77
2023-05-14T05:51:10.217Z,10.63
2023-05-14T05:53:37.196Z,10.50
2023-05-14T05:56:04.128Z,10.48
2023-05-14T05:58:30.957Z,10.50
2023-05-14T06:00:58.327Z,10.43
2023-05-14T06:03:25.432Z,9.77
2023-05-14T06:05:52.706Z,10.70
2023-05-14T06:08:19.610Z,10.85
2023-05-14T06:10:47.679Z,10.13
2023-05-14T06:13:14.736Z,10.45
2023-05-14T06:15:41.558Z,9.73
2023-05-14T06:18:08.543Z,9.50
2023-05-14T06:20:35.470Z,10.13
2023-05-14T06:23:02.330Z,9.77
2023-05-14T06:25:29.189Z,10.40
2023-05-14T06:27:56.069Z,9.73
2023-05-14T06:30:23.507Z,9.55
2023-05-14T06:32:50.643Z,9.90
2023-05-14T06:35:19.083Z,10.40
2023-05-14T06:37:45.992Z,9.57
2023-05-14T06:40:15.660Z,9.87
2023-05-14T06:42:42.591Z,10.15
2023-05-14T06:45:09.730Z,10.82
2023-05-14T06:47:36.653Z,10.05
2023-05-14T06:50:04.235Z,9.75
2023-05-14T06:52:31.275Z,10.47
2023-05-14T06:54:58.087Z,10.30
2023-05-14T06:57:25.153Z,10.57
2023-05-14T06:59:52.281Z,10.52
2023-05-14T07:02:19.157Z,10.85
2023-05-14T07:04:46.623Z,9.87
2023-05-14T07:07:15.526Z,10.30
2023-05-14T07:09:42.751Z,10.30
2023-05-14T07:12:09.803Z,9.98
2023-05-14T07:14:36.589Z,9.73
2023-05-14T07:17:03.679Z,10.33
2023-05-14T07:19:30.552Z,9.68
2023-05-14T07:21:57.860Z,10.15
2023-05-14T07:24:24.756Z,10.45
2023-05-14T07:26:51.676Z,10.15
2023-05-14T07:29:18.544Z,10.20
2023-05-14T07:31:45.418Z,9.93
2023-05-14T07:34:12.867Z,10.02
2023-05-14T07:36:39.796Z,10.52
2023-05-14T07:39:06.634Z,9.38
2023-05-14T07:41:33.651Z,9.70
2023-05-14T07:44:00.585Z,9.82
2023-05-14T07:46:27.371Z,9.32
2023-05-14T07:48:54.223Z,9.70
2023-05-14T07:51:21.073Z,8.57
2023-05-14T07:53:47.895Z,8.80
2023-05-14T07:56:14.724Z,9.02
2023-05-14T07:58:41.615Z,8.65
2023-05-14T08:01:09.195Z,8.45
2023-05-14T08:03:36.181Z,8.00
2023-05-14T08:06:03.950Z,8.10
2023-05-14T08:08:30.843Z,8.10
2023-05-14T08:10:57.786Z,8.00
2023-05-14T08:13:24.664Z,8.13
2023-05-14T08:15:51.643Z,7.90
2023-05-14T08:18:18.429Z,8.50
2023-05-14T08:20:45.258Z,8.10
2023-05-14T08:23:12.328Z,7.50
2023-05-14T08:25:39.147Z,6.95
2023-05-14T08:28:06.067Z,7.13
2023-05-14T08:30:33.122Z,6.50
2023-05-14T08:33:00.008Z,6.50
2023-05-14T08:35:26.800Z,5.82
2023-05-14T08:37:53.677Z,5.78
2023-05-14T08:40:20.748Z,5.20
2023-05-14T08:42:48.450Z,5.30
2023-05-14T08:45:25.538Z,4.85
2023-05-14T08:47:52.965Z,5.47
2023-05-14T08:50:22.696Z,5.20
2023-05-14T08:52:50.651Z,5.60
2023-05-14T08:55:17.782Z,5.80
2023-05-14T08:57:44.743Z,5.55
2023-05-14T09:00:12.248Z,5.45
2023-05-14T09:02:40.862Z,5.60
2023-05-14T09:05:09.192Z,5.60
2023-05-14T09:07:36.210Z,5.00
2023-05-14T09:10:04.029Z,5.40
2023-05-14T09:12:31.397Z,5.22
2023-05-14T09:14:58.244Z,5.30
2023-05-14T09:17:27.887Z,5.15
2023-05-14T09:19:55.783Z,5.00
2023-05-14T09:22:22.614Z,5.20
2023-05-14T09:25:04.535Z,5.03
2023-05-14T09:27:32.709Z,5.22
2023-05-14T09:30:07.188Z,5.03
2023-05-14T09:32:38.482Z,5.30
2023-05-14T09:35:19.835Z,4.72
2023-05-14T09:37:49.128Z,5.40
2023-05-14T09:40:17.222Z,4.95
2023-05-14T09:42:44.436Z,4.82
2023-05-14T09:45:12.033Z,4.83
2023-05-14T09:47:39.736Z,4.80
2023-05-14T09:50:07.543Z,4.72
2023-05-14T09:52:34.936Z,4.75
2023-05-14T09:55:02.341Z,4.65
2023-05-14T09:57:29.266Z,4.97
2023-05-14T09:59:56.263Z,5.13
2023-05-14T10:02:30.080Z,4.85
2023-05-14T10:05:02.532Z,4.75
2023-05-14T10:07:47.039Z,4.75
2023-05-14T10:10:19.835Z,5.20
2023-05-14T10:12:53.496Z,5.07
2023-05-14T10:15:32.849Z,4.78
2023-05-14T10:18:04.121Z,4.60
2023-05-14T10:20:31.417Z,4.70
2023-05-14T10:22:58.940Z,4.50
2023-05-14T10:25:26.388Z,4.72
2023-05-14T10:27:54.023Z,4.70
2023-05-14T10:30:25.310Z,4.80
2023-05-14T10:33:09.504Z,4.43
2023-05-14T10:35:55.103Z,4.50
2023-05-14T10:38:30.193Z,4.20
2023-05-14T10:41:18.024Z,4.50
2023-05-14T10:43:45.008Z,4.65
2023-05-14T10:46:13.782Z,4.40
2023-05-14T10:48:44.220Z,3.80
2023-05-14T10:51:12.450Z,4.38
2023-05-14T10:53:41.489Z,4.60
2023-05-14T10:56:13.004Z,4.45
2023-05-14T10:58:44.777Z,4.60
2023-05-14T11:01:13.413Z,4.77
2023-05-14T11:03:46.345Z,4.47
2023-05-14T11:06:15.444Z,4.10
2023-05-14T11:08:42.685Z,4.18
2023-05-14T11:11:10.834Z,3.97
2023-05-14T11:13:38.394Z,4.60
2023-05-14T11:16:15.508Z,4.50
2023-05-14T11:19:00.399Z,4.30
2023-05-14T11:21:27.641Z,4.43
2023-05-14T11:23:55.759Z,4.30
2023-05-14T11:26:24.192Z,4.50
2023-05-14T11:28:51.372Z,4.63
2023-05-14T11:31:18.973Z,4.20
2023-05-14T11:33:46.034Z,4.20
2023-05-14T11:36:12.943Z,4.70
2023-05-14T11:38:48.841Z,4.53
2023-05-14T11:41:16.133Z,4.60
2023-05-14T11:43:43.163Z,4.47
2023-05-14T11:46:18.067Z,4.75
2023-05-14T11:48:45.600Z,4.47
2023-05-14T11:51:12.755Z,4.60
2023-05-14T11:53:39.722Z,4.43
2023-05-14T11:56:09.489Z,4.85
2023-05-14T11:58:36.850Z,4.40
2023-05-14T12:01:03.761Z,4.55
2023-05-14T12:03:30.985Z,5.30
2023-05-14T12:05:59.725Z,4.93
2023-05-14T12:08:31.366Z,4.40
2023-05-14T12:11:00.110Z,4.55
2023-05-14T12:13:27.960Z,4.00
2023-05-14T12:15:56.733Z,3.97
2023-05-14T12:18:29.008Z,4.32
2023-05-14T12:20:56.162Z,4.70
2023-05-14T12:23:27.024Z,4.55
2023-05-14T12:25:53.819Z,4.70
2023-05-14T12:28:23.074Z,4.60
2023-05-14T12:30:56.802Z,4.18
2023-05-14T12:33:23.912Z,4.45
2023-05-14T12:35:50.759Z,4.30
2023-05-14T12:38:17.627Z,5.25
2023-05-14T12:40:44.715Z,5.80
2023-05-14T12:43:11.452Z,4.10
2023-05-14T12:45:38.238Z,4.38
2023-05-14T12:48:05.317Z,4.50
2023-05-14T12:50:32.207Z,4.45
2023-05-14T12:52:59.127Z,4.10
2023-05-14T12:55:26.053Z,4.20
2023-05-14T12:57:53.922Z,4.10
2023-05-14T13:00:20.880Z,4.50
2023-05-14T13:02:47.785Z,4.35
2023-05-14T13:05:14.680Z,4.40
2023-05-14T13:07:41.574Z,3.83
2023-05-14T13:10:08.983Z,4.22
2023-05-14T13:12:35.779Z,3.90
2023-05-14T13:15:02.621Z,4.35
2023-05-14T13:17:29.543Z,4.07
2023-05-14T13:19:56.413Z,4.18
2023-05-14T13:22:23.158Z,4.00
2023-05-14T13:24:49.989Z,4.00
2023-05-14T13:27:16.798Z,4.55
2023-05-14T13:29:43.655Z,3.70
2023-05-14T13:32:10.678Z,4.00
2023-05-14T13:34:37.496Z,3.80
2023-05-14T13:37:04.509Z,4.07
2023-05-14T13:39:31.300Z,3.83
2023-05-14T13:41:58.333Z,3.80
2023-05-14T13:44:25.482Z,3.90
2023-05-14T13:46:52.844Z,4.10
2023-05-14T13:49:19.935Z,4.40
2023-05-14T13:51:46.877Z,4.57
2023-05-14T13:54:15.319Z,4.60
2023-05-14T13:56:42.454Z,4.78
2023-05-14T13:59:09.389Z,5.22
2023-05-14T14:01:36.165Z,4.93
2023-05-14T14:04:03.357Z,5.00
2023-05-14T14:06:32.242Z,5.27
2023-05-14T14:08:58.982Z,5.15
2023-05-14T14:11:26.216Z,5.40
2023-05-14T14:13:53.466Z,5.78
2023-05-14T14:16:20.429Z,5.90
2023-05-14T14:18:47.334Z,5.10
2023-05-14T14:21:17.881Z,5.20
2023-05-14T14:23:46.805Z,5.80
2023-05-14T14:26:13.774Z,5.35
2023-05-14T14:28:40.843Z,5.45
2023-05-14T14:31:07.880Z,5.30
2023-05-14T14:33:34.698Z,5.47
2023-05-14T14:36:01.751Z,5.40
2023-05-14T14:38:28.611Z,5.93
2023-05-14T14:40:55.607Z,5.32
2023-05-14T14:43:22.388Z,5.10
2023-05-14T14:45:49.450Z,5.30
2023-05-14T14:48:28.385Z,5.20
2023-05-14T14:50:55.755Z,4.68
2023-05-14T14:53:23.481Z,5.20
2023-05-14T14:55:51.086Z,5.57
2023-05-14T14:58:19.551Z,6.55
2023-05-14T15:00:47.178Z,5.72
2023-05-14T15:03:15.325Z,5.78
2023-05-14T15:05:42.491Z,5.20
2023-05-14T15:08:09.461Z,4.87
2023-05-14T15:10:40.400Z,5.55
2023-05-14T15:13:08.463Z,5.10
2023-05-14T15:15:36.010Z,5.55
2023-05-14T15:18:04.355Z,5.72
2023-05-14T15:20:31.252Z,5.90
2023-05-14T15:22:58.133Z,6.00
2023-05-14T15:25:25.409Z,7.10
2023-05-14T15:27:52.308Z,7.47
2023-05-14T15:30:19.115Z,7.68
2023-05-14T15:32:46.625Z,7.43
2023-05-14T15:35:17.012Z,8.10
2023-05-14T15:37:45.095Z,8.70
2023-05-14T15:40:12.889Z,8.70
2023-05-14T15:42:44.436Z,8.20
2023-05-14T15:45:14.547Z,8.50
2023-05-14T15:47:41.898Z,8.35
2023-05-14T15:50:09.215Z,8.30
2023-05-14T15:52:36.506Z,7.80
2023-05-14T15:55:05.114Z,8.13
2023-05-14T15:57:32.315Z,7.60
2023-05-14T15:59:59.155Z,7.97
2023-05-14T16:02:25.989Z,7.43
2023-05-14T16:04:52.929Z,7.53
2023-05-14T16:07:19.840Z,7.03
2023-05-14T16:09:46.617Z,7.80
2023-05-14T16:12:14.383Z,7.38
2023-05-14T16:14:42.257Z,6.68
2023-05-14T16:17:09.243Z,6.78
2023-05-14T16:19:36.216Z,7.15
2023-05-14T16:22:03.032Z,6.67
2023-05-14T16:24:29.935Z,7.20
2023-05-14T16:26:56.991Z,6.70
2023-05-14T16:29:23.924Z,6.40
2023-05-14T16:31:50.913Z,6.35
2023-05-14T16:34:17.890Z,7.17
2023-05-14T16:36:44.630Z,7.10
2023-05-14T16:39:11.588Z,7.00
2023-05-14T16:41:38.481Z,7.03
2023-05-14T16:44:05.312Z,6.40
2023-05-14T16:46:32.428Z,7.30
2023-05-14T16:48:59.300Z,6.97
2023-05-14T16:51:26.180Z,7.82
2023-05-14T16:53:55.451Z,7.57
2023-05-14T16:56:22.775Z,6.88
2023-05-14T16:58:50.059Z,7.40
2023-05-14T17:01:16.930Z,7.45
2023-05-14T17:03:45.528Z,7.82
2023-05-14T17:06:12.433Z,7.05
2023-05-14T17:08:39.175Z,7.47
2023-05-14T17:11:06.189Z,7.40
2023-05-14T17:13:33.615Z,7.57
2023-05-14T17:16:00.989Z,7.82
2023-05-14T17:18:28.230Z,7.50
2023-05-14T17:20:55.184Z,8.05
2023-05-14T17:23:22.025Z,7.37
2023-05-14T17:25:48.992Z,7.22
2023-05-14T17:28:15.786Z,7.20
2023-05-14T17:30:42.667Z,7.35
2023-05-14T17:33:09.656Z,7.72
2023-05-14T17:35:37.340Z,7.27
2023-05-14T17:38:04.191Z,7.20
2023-05-14T17:40:31.144Z,7.88
2023-05-14T17:42:58.044Z,7.30
2023-05-14T17:45:25.256Z,7.40
2023-05-14T17:47:52.447Z,6.90
2023-05-14T17:50:19.485Z,7.18
2023-05-14T17:52:47.600Z,7.50
2023-05-14T17:55:14.699Z,7.65
2023-05-14T17:57:42.192Z,7.20
2023-05-14T18:00:09.581Z,7.30
2023-05-14T18:02:39.644Z,7.53
2023-05-14T18:05:06.905Z,7.15
2023-05-14T18:07:34.896Z,7.03
2023-05-14T18:10:01.778Z,6.97
2023-05-14T18:12:29.289Z,7.13
2023-05-14T18:14:56.254Z,7.20
2023-05-14T18:17:23.156Z,6.88
2023-05-14T18:19:50.132Z,6.90
2023-05-14T18:22:17.105Z,7.18
2023-05-14T18:24:44.467Z,6.83
2023-05-14T18:27:11.563Z,6.82
2023-05-14T18:29:38.329Z,6.65
2023-05-14T18:32:05.769Z,6.53
2023-05-14T18:34:32.600Z,7.35
2023-05-14T18:36:59.635Z,7.43
2023-05-14T18:39:26.448Z,7.15
2023-05-14T18:41:53.429Z,7.75
2023-05-14T18:44:20.227Z,7.07
2023-05-14T18:46:47.254Z,7.57
2023-05-14T18:49:14.101Z,7.07
2023-05-14T18:51:40.920Z,6.50
2023-05-14T18:54:07.921Z,6.30
2023-05-14T18:56:36.925Z,6.60
2023-05-14T18:59:04.300Z,6.15
2023-05-14T19:01:31.469Z,6.73
2023-05-14T19:03:58.540Z,5.82
2023-05-14T19:06:25.685Z,6.70
2023-05-14T19:08:52.550Z,6.63
2023-05-14T19:11:19.369Z,6.07
2023-05-14T19:13:46.767Z,6.50
2023-05-14T19:16:13.868Z,6.68
2023-05-14T19:18:41.184Z,6.70
2023-05-14T19:21:08.152Z,6.38
2023-05-14T19:23:35.077Z,6.45
2023-05-14T19:26:02.005Z,6.17
2023-05-14T19:28:28.966Z,6.68
2023-05-14T19:30:57.163Z,5.82
2023-05-14T19:33:24.456Z,6.50
2023-05-14T19:35:51.936Z,6.25
2023-05-14T19:38:19.746Z,6.80
2023-05-14T19:40:46.764Z,6.15
2023-05-14T19:43:13.721Z,6.13
2023-05-14T19:45:42.908Z,6.07
2023-05-14T19:48:09.764Z,6.60
2023-05-14T19:50:39.470Z,6.30
2023-05-14T19:53:06.285Z,5.88
2023-05-14T19:55:33.126Z,6.50
2023-05-14T19:58:00.134Z,6.45
2023-05-14T20:00:27.136Z,6.70
2023-05-14T20:02:54.652Z,6.67
2023-05-14T20:05:21.605Z,7.30
2023-05-14T20:07:48.937Z,7.13
2023-05-14T20:10:15.877Z,7.30
2023-05-14T20:12:43.035Z,6.25
2023-05-14T20:15:10.313Z,7.23
2023-05-14T20:17:38.587Z,6.93
2023-05-14T20:20:10.048Z,7.15
2023-05-14T20:22:38.315Z,6.50
2023-05-14T20:25:05.801Z,7.20
2023-05-14T20:27:32.642Z,7.03
2023-05-14T20:29:59.457Z,6.47
2023-05-14T20:32:26.403Z,7.28
2023-05-14T20:34:53.428Z,7.53
2023-05-14T20:37:20.395Z,7.05
2023-05-14T20:39:47.410Z,7.10
2023-05-14T20:42:14.680Z,7.68
2023-05-14T20:44:41.471Z,7.95
2023-05-14T20:47:08.380Z,7.55
2023-05-14T20:49:35.166Z,7.47
2023-05-14T20:52:01.909Z,7.07
2023-05-14T20:54:28.660Z,7.65
2023-05-14T20:56:55.514Z,7.63
2023-05-14T20:59:22.342Z,8.10
2023-05-14T21:01:49.300Z,7.40
2023-05-14T21:04:16.849Z,8.07
2023-05-14T21:06:43.885Z,8.05
2023-05-14T21:09:10.904Z,7.85
2023-05-14T21:11:37.888Z,7.70
2023-05-14T21:14:04.804Z,7.90
2023-05-14T21:16:31.873Z,8.27
2023-05-14T21:18:58.879Z,8.10
2023-05-14T21:21:26.048Z,8.15
2023-05-14T21:23:52.923Z,8.65
2023-05-14T21:26:22.262Z,8.73
2023-05-14T21:28:49.056Z,8.60
2023-05-14T21:31:15.918Z,9.82
2023-05-14T21:33:42.856Z,8.88
2023-05-14T21:36:10.020Z,9.40
2023-05-14T21:38:36.950Z,9.77
2023-05-14T21:41:03.860Z,10.43
2023-05-14T21:43:30.986Z,9.60
2023-05-14T21:45:57.851Z,9.88
2023-05-14T21:48:24.781Z,10.30
2023-05-14T21:50:51.647Z,9.95
2023-05-14T21:53:18.889Z,9.90
2023-05-14T21:55:45.713Z,10.10
2023-05-14T21:58:12.494Z,9.93
2023-05-14T22:00:39.297Z,10.85
2023-05-14T22:03:06.185Z,11.40
2023-05-14T22:05:33.203Z,11.70
2023-05-14T22:08:00.311Z,12.07
2023-05-14T22:10:27.154Z,12.73
2023-05-14T22:12:54.004Z,12.95
2023-05-14T22:15:20.966Z,13.80
2023-05-14T22:17:48.177Z,13.10
2023-05-14T22:20:15.056Z,13.77
2023-05-14T22:22:42.013Z,13.18
2023-05-14T22:25:09.469Z,13.68
2023-05-14T22:27:36.274Z,12.90
2023-05-14T22:30:03.603Z,13.43
2023-05-14T22:32:30.738Z,13.55
2023-05-14T22:34:57.617Z,13.43
2023-05-14T22:37:24.574Z,13.85
2023-05-14T22:39:51.332Z,13.48
2023-05-14T22:42:20.154Z,13.43
2023-05-14T22:44:47.105Z,13.13
2023-05-14T22:47:13.947Z,12.82
2023-05-14T22:49:41.448Z,13.23
2023-05-14T22:52:08.673Z,13.02
2023-05-14T22:54:36.353Z,13.30
2023-05-14T22:57:03.771Z,13.60
2023-05-14T22:59:30.560Z,13.00
2023-05-14T23:01:57.505Z,13.73
2023-05-14T23:04:24.422Z,13.38
2023-05-14T23:06:51.441Z,13.40
2023-05-14T23:09:18.921Z,13.40
2023-05-14T23:11:46.201Z,13.35
2023-05-14T23:14:13.058Z,12.65
2023-05-14T23:16:39.910Z,13.63
2023-05-14T23:19:06.920Z,14.00
2023-05-14T23:21:34.024Z,14.40
2023-05-14T23:24:01.067Z,15.63
2023-05-14T23:26:27.842Z,16.25
2023-05-14T23:28:54.685Z,16.55
2023-05-14T23:31:21.731Z,17.43
2023-05-14T23:33:48.579Z,17.88
2023-05-14T23:36:15.555Z,18.48
2023-05-14T23:38:42.440Z,18.15
2023-05-14T23:41:09.299Z,19.35
2023-05-14T23:43:36.284Z,18.83
2023-05-14T23:46:03.179Z,19.38
2023-05-14T23:48:30.160Z,19.70
2023-05-14T23:50:56.915Z,19.48
2023-05-14T23:53:23.708Z,19.92
2023-05-14T23:55:50.774Z,21.57
2023-05-14T23:58:17.628Z,21.48
